Nearby METAR Reports


NZAA - Auckland Intl Ar, New Zealand
Distance from station: NW 162km
Updated: 16/12/2017 04:30
Few Clouds
Few Clouds
 Wind from WNW
Wind: WNW 11 km/h
Temperature: 18°C
Dew Point: 16°C
Humidity: 88%
Barometer: 1018 hPa
Clouds: Few Clouds
Visibility: 10 km
Cloud details: Few Clouds 579 m
2017/12/15 15:30 NZAA 151530Z AUTO 29006KT 9999 FEW019/// 18/16 Q1018 NOSIG
NZWN - Wellington Intl, New Zealand
Distance from station: SSW 357km
Updated: 16/12/2017 04:30
Partly cloudy
Partly cloudy
 Wind from NNE
Wind: NNE 24 km/h
Temperature: 18°C
Dew Point: 14°C
Humidity: 78%
Barometer: 1016 hPa
Clouds: Partly cloudy
Visibility: 10 km
Cloud details: Partly cloudy 640 m
2017/12/15 15:30 NZWN 151530Z AUTO 02013KT 9999 SCT021/// 18/14 Q1016 NOSIG
 
NZCH - Christchurch Int, New Zealand
Distance from station: SSW 647km
Updated: 16/12/2017 04:30
Few Clouds
Few Clouds
 Wind from SW
Wind: SW 17 km/h
Temperature: 15°C
Dew Point: 11°C
Humidity: 77%
Barometer: 1017 hPa
Clouds: Few Clouds
Visibility: 10 km
Cloud details: Few Clouds 549 m
2017/12/15 15:30 NZCH 151530Z AUTO 23009KT 9999 FEW018/// 15/11 Q1017 NOSIG
YSNF - Norfolk Island A, Australia
Distance from station: NW 1258km
Updated: 16/12/2017 04:30
Partly cloudy
Partly cloudy
 Wind from E
Wind: E 15 km/h
Temperature: 19°C
Dew Point: 16°C
Humidity: 83%
Barometer: 1017 hPa
Clouds: Partly cloudy
Visibility: 10 km
Cloud details: Partly cloudy 671 m
2017/12/15 15:30 YSNF 151530Z AUTO 10008KT 9999 // SCT022 19/16 Q1017